Terminal Aerodrome Forecast
Issued by NWS Medford, OR

Home | Current Version | Previous Version | Text Only | Print | Product List | Glossary On
Versions: 1 2 3 4 5 6 7 8 9 10 11 12 13 14 15 16 17
000
FTUS46 KMFR 031332 AAA
TAFMFR
TAF AMD
KMFR 031332Z 0314/0412 VRB03KT 1 1/2SM FU BKN050
     FM032300 30008KT 1SM FU BKN090
     FM040400 VRB03KT 3SM FU SCT090=

USA.gov is the U.S. government's official web portal to all federal, state and local government web resources and services.